createdAt,value
2022-12-15T00:02:20.404Z,10.30
2022-12-15T00:04:46.719Z,10.47
2022-12-15T00:07:12.985Z,10.73
2022-12-15T00:09:39.245Z,10.75
2022-12-15T00:12:05.475Z,10.98
2022-12-15T00:14:31.708Z,11.34
2022-12-15T00:16:57.948Z,11.55
2022-12-15T00:19:24.198Z,11.57
2022-12-15T00:21:50.471Z,11.36
2022-12-15T00:24:16.725Z,10.94
2022-12-15T00:26:42.969Z,10.93
2022-12-15T00:29:09.235Z,11.35
2022-12-15T00:31:35.541Z,11.36
2022-12-15T00:34:01.802Z,11.26
2022-12-15T00:36:28.047Z,11.64
2022-12-15T00:38:56.145Z,11.16
2022-12-15T00:41:25.458Z,10.87
2022-12-15T00:43:51.734Z,10.25
2022-12-15T00:46:18.165Z,9.68
2022-12-15T00:48:44.489Z,8.67
2022-12-15T00:51:10.742Z,9.14
2022-12-15T00:53:36.983Z,9.76
2022-12-15T00:56:03.239Z,10.04
2022-12-15T00:58:29.529Z,10.50
2022-12-15T01:00:55.769Z,11.63
2022-12-15T01:03:22.128Z,12.35
2022-12-15T01:05:48.449Z,12.72
2022-12-15T01:08:14.703Z,12.34
2022-12-15T01:10:40.953Z,12.22
2022-12-15T01:13:07.241Z,12.32
2022-12-15T01:15:33.497Z,12.45
2022-12-15T01:17:59.748Z,11.64
2022-12-15T01:20:26.037Z,11.13
2022-12-15T01:22:52.281Z,10.31
2022-12-15T01:25:18.538Z,10.60
2022-12-15T01:27:44.781Z,10.96
2022-12-15T01:30:11.027Z,10.90
2022-12-15T01:32:41.417Z,12.32
2022-12-15T01:35:10.750Z,12.71
2022-12-15T01:37:37.033Z,12.47
2022-12-15T01:40:03.329Z,12.18
2022-12-15T01:42:29.693Z,12.61
2022-12-15T01:44:55.940Z,12.43
2022-12-15T01:47:22.193Z,12.39
2022-12-15T01:49:49.185Z,11.87
2022-12-15T01:52:15.602Z,11.93
2022-12-15T01:54:41.833Z,10.74
2022-12-15T01:57:08.070Z,10.38
2022-12-15T01:59:34.313Z,10.12
2022-12-15T02:02:00.689Z,9.78
2022-12-15T02:04:27.043Z,10.40
2022-12-15T02:06:53.295Z,10.16
2022-12-15T02:09:19.534Z,10.15
2022-12-15T02:11:45.790Z,9.85
2022-12-15T02:14:12.037Z,10.13
2022-12-15T02:16:38.350Z,10.84
2022-12-15T02:19:04.636Z,11.00
2022-12-15T02:21:30.894Z,11.76
2022-12-15T02:23:57.140Z,11.59
2022-12-15T02:26:23.641Z,12.42
2022-12-15T02:28:49.961Z,13.36
2022-12-15T02:31:16.240Z,13.76
2022-12-15T02:33:42.506Z,13.69
2022-12-15T02:36:08.762Z,13.55
2022-12-15T02:38:35.019Z,13.01
2022-12-15T02:41:01.273Z,13.05
2022-12-15T02:43:27.695Z,13.06
2022-12-15T02:45:54.221Z,13.25
2022-12-15T02:48:20.532Z,13.85
2022-12-15T02:50:46.790Z,14.30
2022-12-15T02:53:13.072Z,14.19
2022-12-15T02:55:39.325Z,14.22
2022-12-15T02:58:05.562Z,14.11
2022-12-15T03:00:31.827Z,13.97
2022-12-15T03:02:58.164Z,14.20
2022-12-15T03:05:24.507Z,13.73
2022-12-15T03:07:50.788Z,13.58
2022-12-15T03:10:17.031Z,13.39
2022-12-15T03:12:43.289Z,13.21
2022-12-15T03:15:09.533Z,13.21
2022-12-15T03:17:35.785Z,13.27
2022-12-15T03:20:02.086Z,13.53
2022-12-15T03:22:28.334Z,13.34
2022-12-15T03:24:54.565Z,12.94
2022-12-15T03:27:20.826Z,12.97
2022-12-15T03:29:47.095Z,12.99
2022-12-15T03:32:13.428Z,12.91
2022-12-15T03:34:39.729Z,12.60
2022-12-15T03:37:05.970Z,12.35
2022-12-15T03:39:32.230Z,13.10
2022-12-15T03:41:58.484Z,12.67
2022-12-15T03:44:24.741Z,13.39
2022-12-15T03:46:50.979Z,13.52
2022-12-15T03:49:17.217Z,13.94
2022-12-15T03:51:43.457Z,13.67
2022-12-15T03:54:09.709Z,13.97
2022-12-15T03:56:35.991Z,14.18
2022-12-15T03:59:02.241Z,14.86
2022-12-15T04:01:28.580Z,15.13
2022-12-15T04:04:00.246Z,15.48
2022-12-15T04:06:27.279Z,15.88
2022-12-15T04:08:53.551Z,16.25
2022-12-15T04:11:19.843Z,15.59
2022-12-15T04:13:46.119Z,15.56
2022-12-15T04:16:17.820Z,15.50
2022-12-15T04:18:45.939Z,15.10
2022-12-15T04:21:12.192Z,14.27
2022-12-15T04:23:38.437Z,13.65
2022-12-15T04:26:04.700Z,13.67
2022-12-15T04:28:31.078Z,13.51
2022-12-15T04:30:57.408Z,13.47
2022-12-15T04:33:27.708Z,13.84
2022-12-15T04:35:56.931Z,13.61
2022-12-15T04:38:23.180Z,13.40
2022-12-15T04:40:49.435Z,13.15
2022-12-15T04:43:15.729Z,13.09
2022-12-15T04:45:42.053Z,12.93
2022-12-15T04:48:08.330Z,13.13
2022-12-15T04:50:34.596Z,12.96
2022-12-15T04:53:00.836Z,12.95
2022-12-15T04:55:27.100Z,12.33
2022-12-15T04:57:53.394Z,13.00
2022-12-15T05:00:19.665Z,12.70
2022-12-15T05:02:46.006Z,12.99
2022-12-15T05:05:16.068Z,12.89
2022-12-15T05:07:42.326Z,12.79
2022-12-15T05:10:14.641Z,13.01
2022-12-15T05:12:41.480Z,13.69
2022-12-15T05:15:07.733Z,14.05
2022-12-15T05:17:38.319Z,13.91
2022-12-15T05:20:07.555Z,14.09
2022-12-15T05:22:33.798Z,13.79
2022-12-15T05:25:00.072Z,13.67
2022-12-15T05:27:26.332Z,13.14
2022-12-15T05:29:52.586Z,12.82
2022-12-15T05:32:18.826Z,12.41
2022-12-15T05:34:45.073Z,12.23
2022-12-15T05:37:11.337Z,11.36
2022-12-15T05:39:37.584Z,11.11
2022-12-15T05:42:03.939Z,10.17
2022-12-15T05:44:30.169Z,10.31
2022-12-15T05:46:56.397Z,9.58
2022-12-15T05:49:22.651Z,9.68
2022-12-15T05:51:48.890Z,9.88
2022-12-15T05:54:15.138Z,9.56
2022-12-15T05:56:41.370Z,7.22
2022-12-15T05:59:07.612Z,7.75
2022-12-15T06:01:33.895Z,8.90
2022-12-15T06:04:00.152Z,9.15
2022-12-15T06:06:26.411Z,8.93
2022-12-15T06:08:52.650Z,8.19
2022-12-15T06:11:18.906Z,9.19
2022-12-15T06:13:45.138Z,9.23
2022-12-15T06:16:11.442Z,9.52
2022-12-15T06:18:37.713Z,10.26
2022-12-15T06:21:03.973Z,12.45
2022-12-15T06:23:30.785Z,13.94
2022-12-15T06:25:57.313Z,14.23
2022-12-15T06:28:23.554Z,13.76
2022-12-15T06:30:49.922Z,14.94
2022-12-15T06:33:16.166Z,15.16
2022-12-15T06:35:42.419Z,14.98
2022-12-15T06:38:08.662Z,14.91
2022-12-15T06:40:38.281Z,16.00
2022-12-15T06:43:04.683Z,14.33
2022-12-15T06:45:30.933Z,14.12
2022-12-15T06:48:01.305Z,12.57
2022-12-15T06:50:28.050Z,11.41
2022-12-15T06:52:54.294Z,11.20
2022-12-15T06:55:20.548Z,10.81
2022-12-15T06:57:46.936Z,10.91
2022-12-15T07:00:13.243Z,10.76
2022-12-15T07:02:39.639Z,10.77
2022-12-15T07:05:05.980Z,11.25
2022-12-15T07:07:32.226Z,11.96
2022-12-15T07:09:58.501Z,11.08
2022-12-15T07:12:24.776Z,10.67
2022-12-15T07:14:53.555Z,10.41
2022-12-15T07:17:20.087Z,10.19
2022-12-15T07:19:46.414Z,10.70
2022-12-15T07:22:12.658Z,11.22
2022-12-15T07:24:38.893Z,11.32
2022-12-15T07:27:05.139Z,14.64
2022-12-15T07:29:31.396Z,24.93
2022-12-15T07:31:57.686Z,17.20
2022-12-15T07:34:23.982Z,15.97
2022-12-15T07:36:52.604Z,24.37
2022-12-15T07:39:19.063Z,14.45
2022-12-15T07:41:45.325Z,10.53
2022-12-15T07:44:11.727Z,9.60
2022-12-15T07:46:38.047Z,9.01
2022-12-15T07:49:04.358Z,9.19
2022-12-15T07:51:30.598Z,10.49
2022-12-15T07:53:56.853Z,11.35
2022-12-15T07:56:23.100Z,12.69
2022-12-15T07:58:49.330Z,12.44
2022-12-15T08:01:15.768Z,12.74
2022-12-15T08:03:42.357Z,13.36
2022-12-15T08:06:08.669Z,13.81
2022-12-15T08:08:35.846Z,12.43
2022-12-15T08:11:02.525Z,13.15
2022-12-15T08:14:00.884Z,13.87
2022-12-15T08:16:15.148Z,16.49
2022-12-15T08:18:41.457Z,18.51
2022-12-15T08:21:07.703Z,18.75
2022-12-15T08:23:34.409Z,22.04
2022-12-15T08:26:00.880Z,20.20
2022-12-15T08:28:27.129Z,19.15
2022-12-15T08:30:53.397Z,17.27
2022-12-15T08:33:19.655Z,17.07
2022-12-15T08:35:56.872Z,13.91
2022-12-15T08:38:23.506Z,13.11
2022-12-15T08:40:49.746Z,13.45
2022-12-15T08:43:15.990Z,14.39
2022-12-15T08:45:42.461Z,13.34
2022-12-15T08:48:08.804Z,11.48
2022-12-15T08:50:35.042Z,10.17
2022-12-15T08:53:29.682Z,10.13
2022-12-15T08:55:47.611Z,9.90
2022-12-15T08:58:13.908Z,10.16
2022-12-15T09:00:40.149Z,11.00
2022-12-15T09:03:06.383Z,11.79
2022-12-15T09:05:32.644Z,12.37
2022-12-15T09:08:04.662Z,12.44
2022-12-15T09:10:32.743Z,12.05
2022-12-15T09:12:59.016Z,12.61
2022-12-15T09:15:45.404Z,12.98
2022-12-15T09:18:11.500Z,12.97
2022-12-15T09:20:37.754Z,15.17
2022-12-15T09:23:03.991Z,13.98
2022-12-15T09:25:30.234Z,13.02
2022-12-15T09:27:56.510Z,13.54
2022-12-15T09:30:22.790Z,14.40
2022-12-15T09:32:49.034Z,15.07
2022-12-15T09:35:15.274Z,15.01
2022-12-15T09:37:41.514Z,14.95
2022-12-15T09:40:07.765Z,15.26
2022-12-15T09:42:34.028Z,15.29
2022-12-15T09:45:00.358Z,15.87
2022-12-15T09:47:26.624Z,16.45
2022-12-15T09:49:52.901Z,16.59
2022-12-15T09:52:19.203Z,15.87
2022-12-15T09:54:45.523Z,16.85
2022-12-15T09:57:11.817Z,17.20
2022-12-15T09:59:38.088Z,16.97
2022-12-15T10:02:04.424Z,17.15
2022-12-15T10:04:30.900Z,17.32
2022-12-15T10:06:57.267Z,17.22
2022-12-15T10:09:23.519Z,16.81
2022-12-15T10:11:50.538Z,16.72
2022-12-15T10:14:17.211Z,17.07
2022-12-15T10:16:43.454Z,16.59
2022-12-15T10:19:09.698Z,17.24
2022-12-15T10:21:35.988Z,16.89
2022-12-15T10:24:02.290Z,17.60
2022-12-15T10:26:28.534Z,17.16
2022-12-15T10:28:54.783Z,17.94
2022-12-15T10:31:21.675Z,16.73
2022-12-15T10:33:50.193Z,17.94
2022-12-15T10:36:16.738Z,34.64
2022-12-15T10:38:42.980Z,42.86
2022-12-15T10:41:09.241Z,31.91
2022-12-15T10:43:36.193Z,39.72
2022-12-15T10:46:02.794Z,38.91
2022-12-15T10:48:29.095Z,34.74
2022-12-15T10:50:55.367Z,30.32
2022-12-15T10:53:21.637Z,20.34
2022-12-15T10:55:49.904Z,17.26
2022-12-15T10:58:16.491Z,14.73
2022-12-15T11:00:42.765Z,12.37
2022-12-15T11:03:09.210Z,12.59
2022-12-15T11:05:35.622Z,11.96
2022-12-15T11:08:01.855Z,11.87
2022-12-15T11:10:28.109Z,11.76
2022-12-15T11:15:40.610Z,10.95
2022-12-15T11:18:06.907Z,10.31
2022-12-15T11:20:33.166Z,9.44
2022-12-15T11:22:59.425Z,9.17
2022-12-15T11:25:25.678Z,8.69
2022-12-15T11:27:51.910Z,8.62
2022-12-15T11:30:18.137Z,8.67
2022-12-15T11:32:44.390Z,8.69
2022-12-15T11:35:10.622Z,8.85
2022-12-15T11:37:37.187Z,9.21
2022-12-15T11:40:03.503Z,9.75
2022-12-15T11:42:29.857Z,9.62
2022-12-15T11:44:56.117Z,10.12
2022-12-15T11:47:22.384Z,10.35
2022-12-15T11:49:48.812Z,11.02
2022-12-15T11:52:15.090Z,10.66
2022-12-15T11:54:41.349Z,10.13
2022-12-15T11:57:07.589Z,10.47
2022-12-15T11:59:33.847Z,10.72
2022-12-15T12:02:03.308Z,11.43
2022-12-15T12:04:29.980Z,11.62
2022-12-15T12:06:56.259Z,11.68
2022-12-15T12:09:22.506Z,11.38
2022-12-15T12:11:48.854Z,11.47
2022-12-15T12:14:16.867Z,11.78
2022-12-15T12:16:43.106Z,12.66
2022-12-15T12:19:09.451Z,12.55
2022-12-15T12:21:35.739Z,12.87
2022-12-15T12:24:01.983Z,12.72
2022-12-15T12:26:28.215Z,12.00
2022-12-15T12:28:54.470Z,11.68
2022-12-15T12:31:20.880Z,11.86
2022-12-15T12:33:47.128Z,12.96
2022-12-15T12:36:14.944Z,12.72
2022-12-15T12:38:41.219Z,12.51
2022-12-15T12:41:07.468Z,12.21
2022-12-15T12:43:34.656Z,11.10
2022-12-15T12:46:01.342Z,11.56
2022-12-15T12:48:27.602Z,11.39
2022-12-15T12:50:53.860Z,11.83
2022-12-15T12:53:20.110Z,11.58
2022-12-15T12:55:46.422Z,11.48
2022-12-15T12:58:13.270Z,12.06
2022-12-15T13:00:39.663Z,12.17
2022-12-15T13:03:06.043Z,11.72
2022-12-15T13:05:32.291Z,11.57
2022-12-15T13:07:58.608Z,11.87
2022-12-15T13:10:24.871Z,11.98
2022-12-15T13:12:52.324Z,11.68
2022-12-15T13:15:19.334Z,11.70
2022-12-15T13:17:46.653Z,11.43
2022-12-15T13:20:15.096Z,11.71
2022-12-15T13:22:41.352Z,11.88
2022-12-15T13:25:07.594Z,11.35
2022-12-15T13:27:33.838Z,10.76
2022-12-15T13:30:00.075Z,10.62
2022-12-15T13:32:26.394Z,10.92
2022-12-15T13:34:52.812Z,10.83
2022-12-15T13:37:19.173Z,10.64
2022-12-15T13:39:45.438Z,10.74
2022-12-15T13:42:33.510Z,10.39
2022-12-15T13:45:00.698Z,9.62
2022-12-15T13:47:26.942Z,10.10
2022-12-15T13:49:59.313Z,9.97
2022-12-15T13:52:59.468Z,12.95
2022-12-15T13:55:14.121Z,10.53
2022-12-15T13:57:40.364Z,10.62
2022-12-15T14:00:06.614Z,10.74
2022-12-15T14:02:32.913Z,10.91
2022-12-15T14:04:59.186Z,11.00
2022-12-15T14:07:25.420Z,11.05
2022-12-15T14:09:51.655Z,10.91
2022-12-15T14:12:17.908Z,11.29
2022-12-15T14:14:44.150Z,10.98
2022-12-15T14:17:13.470Z,10.77
2022-12-15T14:19:39.732Z,10.49
2022-12-15T14:22:05.980Z,10.11
2022-12-15T14:24:40.420Z,9.75
2022-12-15T14:27:07.017Z,9.74
2022-12-15T14:29:33.273Z,10.36
2022-12-15T14:31:59.572Z,10.38
2022-12-15T14:34:25.853Z,9.93
2022-12-15T14:36:52.133Z,10.19
2022-12-15T14:39:18.390Z,10.01
2022-12-15T14:41:44.657Z,10.18
2022-12-15T14:44:37.203Z,11.03
2022-12-15T14:47:01.546Z,10.64
2022-12-15T14:49:27.884Z,10.37
2022-12-15T14:51:54.848Z,10.73
2022-12-15T14:54:21.145Z,9.96
2022-12-15T14:56:47.380Z,9.80
2022-12-15T14:59:13.720Z,9.99
2022-12-15T15:01:40.413Z,9.21
2022-12-15T15:03:10.726Z,11.62
2022-12-15T15:04:06.775Z,8.95
2022-12-15T15:06:33.015Z,9.13
2022-12-15T15:08:59.263Z,8.80
2022-12-15T15:11:25.560Z,8.80
2022-12-15T15:13:51.798Z,8.86
2022-12-15T15:16:18.126Z,8.50
2022-12-15T15:18:44.409Z,8.77
2022-12-15T15:21:10.650Z,8.91
2022-12-15T15:23:36.881Z,9.07
2022-12-15T15:26:03.173Z,9.48
2022-12-15T15:28:29.833Z,10.99
2022-12-15T15:30:56.867Z,9.79
2022-12-15T15:33:23.330Z,10.28
2022-12-15T15:35:49.573Z,8.98
2022-12-15T15:38:15.822Z,7.96
2022-12-15T15:40:42.077Z,7.29
2022-12-15T15:43:08.333Z,7.34
2022-12-15T15:45:34.580Z,6.95
2022-12-15T15:48:00.834Z,6.80
2022-12-15T15:50:27.205Z,6.56
2022-12-15T15:52:53.552Z,6.72
2022-12-15T15:55:19.808Z,6.51
2022-12-15T15:57:46.052Z,7.33
2022-12-15T16:00:12.290Z,7.61
2022-12-15T16:02:38.713Z,8.06
2022-12-15T16:05:05.063Z,8.59
2022-12-15T16:07:31.309Z,8.04
2022-12-15T16:09:57.572Z,7.52
2022-12-15T16:12:23.858Z,7.20
2022-12-15T16:14:50.114Z,6.51
2022-12-15T16:17:16.355Z,6.39
2022-12-15T16:19:42.719Z,5.92
2022-12-15T16:22:08.955Z,5.78
2022-12-15T16:24:35.212Z,5.99
2022-12-15T16:27:01.474Z,5.11
2022-12-15T16:29:27.710Z,5.17
2022-12-15T16:31:54.028Z,4.98
2022-12-15T16:34:20.334Z,4.97
2022-12-15T16:36:46.593Z,5.16
2022-12-15T16:39:12.849Z,4.69
2022-12-15T16:41:39.099Z,4.72
2022-12-15T16:44:05.353Z,5.09
2022-12-15T16:46:31.691Z,4.91
2022-12-15T16:48:58.016Z,4.57
2022-12-15T16:51:24.317Z,4.31
2022-12-15T16:53:50.584Z,4.64
2022-12-15T16:56:16.845Z,4.22
2022-12-15T16:58:48.504Z,4.50
2022-12-15T17:01:15.107Z,4.68
2022-12-15T17:03:41.424Z,4.61
2022-12-15T17:06:07.714Z,4.16
2022-12-15T17:08:34.497Z,4.33
2022-12-15T17:11:01.018Z,4.09
2022-12-15T17:13:33.645Z,3.94
2022-12-15T17:16:03.101Z,4.30
2022-12-15T17:18:29.746Z,4.21
2022-12-15T17:20:56.189Z,3.87
2022-12-15T17:23:22.445Z,3.85
2022-12-15T17:28:34.940Z,3.59
2022-12-15T17:31:01.251Z,3.64
2022-12-15T17:33:27.553Z,3.59
2022-12-15T17:35:53.782Z,3.34
2022-12-15T17:38:20.030Z,3.01
2022-12-15T17:40:46.274Z,3.30
2022-12-15T17:43:12.520Z,2.66
2022-12-15T17:45:38.773Z,3.02
2022-12-15T17:48:05.009Z,3.59
2022-12-15T17:50:31.241Z,3.05
2022-12-15T17:52:57.494Z,2.98
2022-12-15T17:55:23.741Z,3.01
2022-12-15T17:57:49.971Z,2.65
2022-12-15T18:00:16.229Z,2.72
2022-12-15T18:02:42.759Z,2.72
2022-12-15T18:05:09.139Z,2.77
2022-12-15T18:07:35.379Z,2.54
2022-12-15T18:10:01.633Z,2.59
2022-12-15T18:12:27.853Z,2.86
2022-12-15T18:14:54.089Z,3.16
2022-12-15T18:17:20.347Z,2.82
2022-12-15T18:19:46.638Z,2.82
2022-12-15T18:22:13.022Z,3.11
2022-12-15T18:24:39.266Z,3.67
2022-12-15T18:27:05.521Z,3.55
2022-12-15T18:29:31.778Z,3.60
2022-12-15T18:31:58.161Z,3.82
2022-12-15T18:34:24.458Z,3.89
2022-12-15T18:36:50.704Z,3.95
2022-12-15T18:39:16.958Z,3.79
2022-12-15T18:41:43.197Z,3.66
2022-12-15T18:44:09.434Z,3.61
2022-12-15T18:46:35.709Z,3.53
2022-12-15T18:49:02.026Z,3.54
2022-12-15T18:51:28.263Z,3.58
2022-12-15T18:53:54.495Z,3.26
2022-12-15T18:56:20.743Z,3.23
2022-12-15T18:58:46.995Z,3.16
2022-12-15T19:01:13.303Z,3.34
2022-12-15T19:03:39.589Z,2.93
2022-12-15T19:06:05.827Z,2.57
2022-12-15T19:08:32.087Z,2.59
2022-12-15T19:10:58.445Z,2.38
2022-12-15T19:13:24.682Z,2.55
2022-12-15T19:15:50.925Z,2.29
2022-12-15T19:18:17.187Z,2.26
2022-12-15T19:20:43.423Z,2.25
2022-12-15T19:23:09.649Z,2.26
2022-12-15T19:25:35.879Z,2.21
2022-12-15T19:28:02.126Z,2.27
2022-12-15T19:30:28.357Z,2.12
2022-12-15T19:32:54.609Z,2.24
2022-12-15T19:35:21.015Z,2.52
2022-12-15T19:37:47.255Z,2.66
2022-12-15T19:40:13.497Z,2.52
2022-12-15T19:42:39.737Z,2.84
2022-12-15T19:45:05.963Z,2.83
2022-12-15T19:47:32.212Z,2.91
2022-12-15T19:49:58.456Z,2.81
2022-12-15T19:52:24.681Z,3.00
2022-12-15T19:54:50.912Z,3.10
2022-12-15T19:57:17.175Z,3.12
2022-12-15T19:59:43.437Z,3.56
2022-12-15T20:02:09.804Z,3.58
2022-12-15T20:04:36.181Z,3.19
2022-12-15T20:07:02.419Z,3.06
2022-12-15T20:09:28.650Z,2.84
2022-12-15T20:11:54.874Z,3.21
2022-12-15T20:14:21.217Z,3.11
2022-12-15T20:16:47.521Z,3.15
2022-12-15T20:19:13.808Z,3.21
2022-12-15T20:21:40.053Z,3.24
2022-12-15T20:24:06.317Z,3.39
2022-12-15T20:26:32.552Z,3.26
2022-12-15T20:28:58.793Z,3.37
2022-12-15T20:31:25.226Z,3.34
2022-12-15T20:33:51.527Z,3.58
2022-12-15T20:36:17.775Z,4.07
2022-12-15T20:38:44.076Z,4.23
2022-12-15T20:41:10.310Z,4.45
2022-12-15T20:43:37.012Z,4.86
2022-12-15T20:46:03.475Z,4.92
2022-12-15T20:48:29.749Z,4.96
2022-12-15T20:50:56.004Z,4.90
2022-12-15T20:53:22.249Z,4.60
2022-12-15T20:55:48.504Z,4.53
2022-12-15T20:58:14.739Z,4.43
2022-12-15T21:00:40.982Z,4.27
2022-12-15T21:03:07.361Z,3.88
2022-12-15T21:05:34.401Z,3.95
2022-12-15T21:08:00.640Z,4.06
2022-12-15T21:10:26.875Z,3.78
2022-12-15T21:12:53.132Z,3.56
2022-12-15T21:15:19.368Z,3.85
2022-12-15T21:17:45.724Z,4.06
2022-12-15T21:20:11.985Z,4.26
2022-12-15T21:22:38.265Z,4.26
2022-12-15T21:25:04.506Z,4.04
2022-12-15T21:27:30.757Z,4.04
2022-12-15T21:29:57.017Z,3.88
2022-12-15T21:32:23.250Z,3.98
2022-12-15T21:34:49.477Z,4.70
2022-12-15T21:37:15.725Z,4.93
2022-12-15T21:39:41.955Z,4.66
2022-12-15T21:42:08.214Z,4.44
2022-12-15T21:44:34.493Z,5.79
2022-12-15T21:47:00.773Z,7.50
2022-12-15T21:49:27.010Z,6.93
2022-12-15T21:51:53.242Z,6.57
2022-12-15T21:54:24.732Z,6.20
2022-12-15T21:56:52.353Z,5.50
2022-12-15T21:59:18.578Z,6.24
2022-12-15T22:01:44.935Z,5.43
2022-12-15T22:04:11.266Z,6.06
2022-12-15T22:06:37.518Z,6.30
2022-12-15T22:09:03.765Z,5.99
2022-12-15T22:11:30.036Z,5.83
2022-12-15T22:13:56.281Z,5.71
2022-12-15T22:16:22.543Z,5.91
2022-12-15T22:18:48.830Z,5.37
2022-12-15T22:21:15.075Z,5.11
2022-12-15T22:23:41.314Z,5.34
2022-12-15T22:26:07.558Z,5.38
2022-12-15T22:28:35.155Z,5.26
2022-12-15T22:31:01.663Z,4.20
2022-12-15T22:33:27.947Z,4.32
2022-12-15T22:35:54.813Z,4.54
2022-12-15T22:38:21.214Z,4.41
2022-12-15T22:40:47.459Z,4.12
2022-12-15T22:43:13.709Z,4.32
2022-12-15T22:45:42.747Z,4.34
2022-12-15T22:48:09.205Z,4.03
2022-12-15T22:50:35.454Z,3.66
2022-12-15T22:53:01.714Z,3.19
2022-12-15T22:55:27.955Z,2.47
2022-12-15T22:57:54.194Z,2.56
2022-12-15T23:00:20.432Z,2.25
2022-12-15T23:02:46.694Z,2.05
2022-12-15T23:05:12.954Z,2.41
2022-12-15T23:07:39.196Z,2.79
2022-12-15T23:10:05.470Z,3.18
2022-12-15T23:12:31.702Z,3.04
2022-12-15T23:14:57.931Z,2.88
2022-12-15T23:17:24.169Z,3.04
2022-12-15T23:19:50.421Z,3.15
2022-12-15T23:22:16.689Z,3.74
2022-12-15T23:24:42.944Z,3.26
2022-12-15T23:27:09.184Z,3.16
2022-12-15T23:29:35.448Z,3.24
2022-12-15T23:32:01.705Z,3.31
2022-12-15T23:34:27.971Z,3.27
2022-12-15T23:36:54.321Z,3.44
2022-12-15T23:39:20.550Z,3.53
2022-12-15T23:41:46.793Z,4.56
2022-12-15T23:44:13.041Z,4.68
2022-12-15T23:46:39.336Z,4.56
2022-12-15T23:49:05.683Z,4.31
2022-12-15T23:51:31.941Z,3.93
2022-12-15T23:53:58.173Z,3.98
2022-12-15T23:56:24.415Z,4.18
2022-12-15T23:58:50.678Z,3.90
